createdAt,value
2017-06-23T00:01:55.639Z,11.50
2017-06-23T00:04:24.599Z,10.40
2017-06-23T00:06:54.271Z,10.30
2017-06-23T00:09:22.292Z,9.33
2017-06-23T00:11:52.227Z,9.40
2017-06-23T00:14:20.243Z,9.57
2017-06-23T00:17:08.747Z,9.13
2017-06-23T00:19:43.987Z,8.80
2017-06-23T00:22:17.859Z,9.60
2017-06-23T00:24:46.643Z,9.60
2017-06-23T00:27:14.664Z,9.20
2017-06-23T00:30:01.808Z,8.70
2017-06-23T00:32:36.239Z,9.00
2017-06-23T00:35:19.011Z,8.33
2017-06-23T00:37:48.031Z,9.30
2017-06-23T00:40:16.051Z,8.87
2017-06-23T00:42:44.975Z,8.80
2017-06-23T00:45:19.766Z,8.23
2017-06-23T00:47:48.726Z,9.97
2017-06-23T00:50:20.263Z,8.70
2017-06-23T00:52:48.318Z,7.73
2017-06-23T00:55:18.228Z,8.67
2017-06-23T00:57:46.262Z,8.67
2017-06-23T01:00:15.215Z,9.10
2017-06-23T01:02:45.131Z,8.57
2017-06-23T01:05:18.898Z,9.00
2017-06-23T01:07:54.250Z,8.80
2017-06-23T01:10:22.282Z,8.10
2017-06-23T01:13:04.367Z,8.20
2017-06-23T01:15:53.503Z,9.13
2017-06-23T01:18:21.518Z,8.80
2017-06-23T01:20:49.538Z,8.77
2017-06-23T01:23:19.471Z,8.50
2017-06-23T01:25:58.755Z,8.43
2017-06-23T01:28:35.454Z,8.80
2017-06-23T01:31:04.378Z,9.30
2017-06-23T01:33:57.950Z,8.33
2017-06-23T01:36:34.194Z,9.30
2017-06-23T01:39:02.214Z,8.80
2017-06-23T01:41:36.306Z,8.77
2017-06-23T01:44:04.358Z,8.83
2017-06-23T01:46:34.038Z,8.40
2017-06-23T01:49:02.062Z,9.67
2017-06-23T01:51:33.802Z,9.00
2017-06-23T01:54:02.590Z,9.33
2017-06-23T01:56:31.373Z,9.30
2017-06-23T01:59:12.978Z,10.00
2017-06-23T02:01:41.002Z,8.80
2017-06-23T02:04:09.018Z,9.20
2017-06-23T02:06:37.078Z,9.53
2017-06-23T02:09:05.878Z,10.10
2017-06-23T02:11:39.577Z,10.37
2017-06-23T02:14:18.810Z,9.40
2017-06-23T02:16:47.757Z,9.93
2017-06-23T02:19:17.669Z,9.50
2017-06-23T02:21:49.050Z,9.27
2017-06-23T02:24:18.969Z,10.30
2017-06-23T02:27:06.273Z,10.30
2017-06-23T02:35:23.530Z,10.70
2017-06-23T02:37:59.542Z,10.50
2017-06-23T02:40:29.481Z,10.17
2017-06-23T02:42:57.498Z,9.60
2017-06-23T02:45:25.541Z,9.57
2017-06-23T02:48:04.525Z,11.27
2017-06-23T02:50:37.585Z,11.07
2017-06-23T02:53:13.845Z,11.30
2017-06-23T02:55:41.949Z,10.10
2017-06-23T02:58:09.961Z,10.47
2017-06-23T03:00:38.781Z,10.57
2017-06-23T03:03:06.869Z,10.10
2017-06-23T03:05:34.873Z,11.17
2017-06-23T03:08:02.894Z,10.83
2017-06-23T03:10:30.961Z,10.47
2017-06-23T03:12:59.037Z,10.57
2017-06-23T03:15:27.105Z,10.30
2017-06-23T03:17:55.765Z,12.30
2017-06-23T03:20:24.580Z,10.60
2017-06-23T03:22:52.653Z,11.10
2017-06-23T03:25:20.677Z,12.17
2017-06-23T03:27:48.789Z,10.80
2017-06-23T03:30:16.862Z,11.60
2017-06-23T03:32:44.917Z,10.90
2017-06-23T03:35:13.005Z,11.23
2017-06-23T03:37:41.073Z,12.00
2017-06-23T03:40:09.148Z,10.77
2017-06-23T03:42:37.212Z,13.23
2017-06-23T03:45:05.232Z,12.17
2017-06-23T03:47:33.264Z,12.40
2017-06-23T03:50:01.325Z,11.60
2017-06-23T03:52:29.336Z,13.10
2017-06-23T03:54:57.468Z,12.23
2017-06-23T03:57:25.537Z,12.67
2017-06-23T03:59:53.812Z,12.90
2017-06-23T04:02:21.884Z,12.30
2017-06-23T04:04:49.896Z,12.33
2017-06-23T04:07:17.916Z,13.53
2017-06-23T04:09:45.965Z,12.20
2017-06-23T04:12:15.292Z,13.63
2017-06-23T04:14:43.369Z,13.30
2017-06-23T04:17:11.437Z,13.23
2017-06-23T04:19:39.505Z,13.40
2017-06-23T04:22:07.578Z,11.93
2017-06-23T04:24:35.653Z,12.80
2017-06-23T04:27:03.672Z,12.07
2017-06-23T04:29:32.532Z,12.13
2017-06-23T04:32:00.684Z,11.33
2017-06-23T04:34:28.752Z,12.27
2017-06-23T04:36:56.775Z,12.17
2017-06-23T04:39:24.897Z,12.20
2017-06-23T04:41:52.968Z,11.57
2017-06-23T04:44:20.988Z,11.87
2017-06-23T04:46:49.028Z,12.37
2017-06-23T04:49:17.040Z,11.77
2017-06-23T04:51:45.836Z,11.40
2017-06-23T04:54:14.652Z,11.63
2017-06-23T04:56:43.852Z,11.30
2017-06-23T04:59:11.873Z,10.77
2017-06-23T05:01:39.996Z,10.60
2017-06-23T05:04:08.004Z,11.80
2017-06-23T05:06:36.028Z,10.47
2017-06-23T05:09:04.080Z,10.33
2017-06-23T05:11:32.172Z,10.20
2017-06-23T05:14:00.192Z,10.93
2017-06-23T05:16:28.219Z,10.80
2017-06-23T05:18:56.284Z,10.90
2017-06-23T05:21:24.356Z,10.53
2017-06-23T05:23:52.424Z,10.80
2017-06-23T05:26:21.008Z,10.20
2017-06-23T05:28:49.112Z,11.20
2017-06-23T05:31:17.147Z,11.67
2017-06-23T05:33:45.220Z,10.73
2017-06-23T05:36:13.294Z,11.43
2017-06-23T05:38:41.335Z,11.60
2017-06-23T05:41:10.124Z,10.83
2017-06-23T05:43:38.911Z,10.17
2017-06-23T05:46:07.732Z,10.87
2017-06-23T05:48:35.755Z,11.50
2017-06-23T05:51:03.869Z,10.60
2017-06-23T05:53:31.935Z,10.60
2017-06-23T05:55:59.959Z,11.23
2017-06-23T05:58:27.984Z,10.00
2017-06-23T06:00:56.007Z,11.73
2017-06-23T06:03:24.795Z,10.90
2017-06-23T06:05:53.580Z,10.93
2017-06-23T06:08:21.795Z,10.67
2017-06-23T06:10:49.815Z,10.93
2017-06-23T06:13:17.835Z,11.80
2017-06-23T06:15:45.883Z,12.93
2017-06-23T06:18:13.907Z,10.93
2017-06-23T06:20:41.923Z,11.30
2017-06-23T06:23:10.740Z,11.00
2017-06-23T06:25:38.759Z,11.37
2017-06-23T06:28:06.779Z,10.07
2017-06-23T06:30:34.823Z,11.90
2017-06-23T06:33:02.851Z,12.03
2017-06-23T06:35:30.876Z,11.33
2017-06-23T06:37:58.927Z,10.00
2017-06-23T06:40:26.947Z,12.20
2017-06-23T06:42:54.971Z,11.53
2017-06-23T06:45:23.788Z,11.17
2017-06-23T06:47:51.850Z,11.70
2017-06-23T06:50:19.851Z,11.40
2017-06-23T06:52:47.879Z,11.63
2017-06-23T06:55:15.904Z,11.20
2017-06-23T06:57:43.922Z,9.83
2017-06-23T07:00:11.951Z,10.77
2017-06-23T07:02:39.971Z,10.83
2017-06-23T07:05:07.995Z,12.07
2017-06-23T07:07:36.034Z,11.07
2017-06-23T07:10:04.055Z,11.20
2017-06-23T07:12:32.835Z,10.83
2017-06-23T07:15:01.647Z,10.90
2017-06-23T07:17:29.663Z,11.00
2017-06-23T07:19:57.682Z,11.80
2017-06-23T07:22:25.723Z,10.57
2017-06-23T07:24:54.506Z,11.27
2017-06-23T07:27:22.523Z,12.53
2017-06-23T07:29:50.562Z,11.77
2017-06-23T07:32:18.578Z,10.73
2017-06-23T07:34:46.594Z,13.03
2017-06-23T07:37:15.410Z,13.10
2017-06-23T07:39:43.430Z,11.90
2017-06-23T07:42:11.446Z,12.80
2017-06-23T07:44:39.490Z,12.27
2017-06-23T07:47:07.502Z,11.80
2017-06-23T07:49:35.519Z,12.03
2017-06-23T07:52:03.558Z,11.40
2017-06-23T07:54:31.582Z,12.00
2017-06-23T07:57:00.366Z,10.60
2017-06-23T07:59:28.410Z,11.27
2017-06-23T08:01:56.426Z,11.50
2017-06-23T08:04:24.442Z,12.17
2017-06-23T08:06:52.488Z,10.93
2017-06-23T08:09:20.502Z,12.00
2017-06-23T08:11:48.518Z,11.10
2017-06-23T08:14:17.378Z,11.17
2017-06-23T08:16:46.162Z,11.77
2017-06-23T08:19:14.942Z,11.80
2017-06-23T08:21:42.986Z,11.40
2017-06-23T08:24:11.006Z,12.07
2017-06-23T08:26:39.030Z,11.83
2017-06-23T08:29:07.069Z,11.40
2017-06-23T08:31:35.085Z,11.57
2017-06-23T08:34:03.105Z,11.40
2017-06-23T08:36:31.145Z,11.53
2017-06-23T08:38:59.173Z,10.77
2017-06-23T08:41:28.230Z,11.40
2017-06-23T08:43:56.269Z,10.97
2017-06-23T08:46:25.050Z,10.77
2017-06-23T08:48:53.838Z,10.33
2017-06-23T08:51:22.657Z,11.20
2017-06-23T08:53:50.677Z,10.90
2017-06-23T08:56:18.689Z,10.63
2017-06-23T08:58:46.737Z,10.40
2017-06-23T09:01:15.517Z,11.00
2017-06-23T09:03:43.533Z,10.73
2017-06-23T09:06:11.574Z,10.13
2017-06-23T09:08:40.358Z,10.47
2017-06-23T09:11:09.145Z,10.83
2017-06-23T09:13:37.961Z,9.20
2017-06-23T09:16:05.973Z,8.03
2017-06-23T09:18:33.989Z,7.77
2017-06-23T09:21:02.027Z,8.10
2017-06-23T09:23:30.033Z,8.33
2017-06-23T09:25:58.048Z,8.80
2017-06-23T09:28:26.088Z,9.10
2017-06-23T09:30:54.100Z,8.83
2017-06-23T09:33:22.113Z,7.80
2017-06-23T09:35:50.153Z,7.97
2017-06-23T09:38:18.173Z,9.37
2017-06-23T09:40:46.176Z,8.00
2017-06-23T09:43:14.229Z,7.20
2017-06-23T09:45:42.244Z,8.20
2017-06-23T09:48:11.025Z,8.70
2017-06-23T09:50:39.836Z,8.30
2017-06-23T09:53:07.849Z,8.20
2017-06-23T09:55:35.860Z,9.03
2017-06-23T09:58:04.840Z,8.27
2017-06-23T10:00:33.616Z,8.60
2017-06-23T10:03:01.624Z,9.40
2017-06-23T10:05:29.665Z,8.13
2017-06-23T10:07:57.676Z,9.00
2017-06-23T10:10:25.688Z,8.90
2017-06-23T10:12:53.724Z,8.90
2017-06-23T10:15:21.741Z,8.00
2017-06-23T10:17:49.752Z,7.67
2017-06-23T10:20:17.796Z,7.83
2017-06-23T10:22:45.809Z,7.60
2017-06-23T10:25:13.820Z,8.10
2017-06-23T10:27:41.856Z,8.27
2017-06-23T10:30:09.872Z,7.77
2017-06-23T10:32:38.664Z,6.53
2017-06-23T10:35:07.469Z,8.03
2017-06-23T10:37:35.485Z,8.23
2017-06-23T10:40:03.499Z,8.60
2017-06-23T10:42:31.540Z,8.23
2017-06-23T10:44:59.552Z,7.97
2017-06-23T10:47:27.576Z,8.40
2017-06-23T10:49:55.612Z,8.13
2017-06-23T10:52:23.628Z,6.80
2017-06-23T10:54:51.644Z,8.30
2017-06-23T10:57:19.688Z,8.60
2017-06-23T10:59:47.712Z,7.77
2017-06-23T11:02:15.721Z,7.53
2017-06-23T11:04:44.528Z,8.47
2017-06-23T11:07:12.548Z,8.20
2017-06-23T11:09:40.564Z,7.50
2017-06-23T11:12:08.612Z,7.20
2017-06-23T11:14:37.396Z,8.03
2017-06-23T11:17:05.408Z,8.07
2017-06-23T11:19:33.431Z,8.20
2017-06-23T11:22:02.212Z,8.00
2017-06-23T11:24:30.227Z,8.00
2017-06-23T11:26:58.275Z,8.20
2017-06-23T11:29:26.291Z,7.60
2017-06-23T11:31:54.308Z,7.30
2017-06-23T11:34:33.031Z,7.60
2017-06-23T11:37:01.808Z,7.33
2017-06-23T11:39:29.819Z,7.40
2017-06-23T11:41:57.875Z,8.07
2017-06-23T11:44:25.892Z,7.77
2017-06-23T11:46:53.908Z,7.50
2017-06-23T11:49:21.928Z,7.90
2017-06-23T11:51:49.940Z,7.90
2017-06-23T11:54:17.947Z,7.70
2017-06-23T11:56:45.979Z,7.70
2017-06-23T11:59:13.999Z,7.37
2017-06-23T12:01:42.011Z,7.60
2017-06-23T12:04:10.807Z,7.80
2017-06-23T12:06:39.587Z,8.93
2017-06-23T12:09:08.371Z,7.03
2017-06-23T12:11:37.171Z,7.77
2017-06-23T12:14:05.187Z,7.13
2017-06-23T12:16:33.200Z,7.63
2017-06-23T12:19:02.011Z,6.47
2017-06-23T12:21:30.031Z,7.10
2017-06-23T12:23:58.052Z,7.43
2017-06-23T12:26:26.095Z,7.70
2017-06-23T12:28:54.107Z,8.10
2017-06-23T12:31:22.127Z,6.93
2017-06-23T12:33:50.151Z,6.77
2017-06-23T12:36:18.163Z,6.80
2017-06-23T12:38:46.175Z,7.80
2017-06-23T12:41:14.211Z,7.80
2017-06-23T12:43:42.998Z,6.50
2017-06-23T12:46:11.006Z,7.53
2017-06-23T12:48:39.054Z,7.03
2017-06-23T12:51:07.826Z,6.33
2017-06-23T12:53:35.834Z,7.30
2017-06-23T12:56:03.851Z,6.60
2017-06-23T12:58:31.858Z,6.80
2017-06-23T13:00:59.875Z,7.47
2017-06-23T13:03:28.054Z,7.10
2017-06-23T13:05:56.063Z,7.60
2017-06-23T13:08:24.838Z,7.07
2017-06-23T13:10:52.867Z,7.03
2017-06-23T13:13:20.875Z,8.10
2017-06-23T13:15:48.887Z,7.23
2017-06-23T13:18:16.906Z,7.63
2017-06-23T13:20:44.918Z,7.90
2017-06-23T13:23:12.935Z,6.90
2017-06-23T13:25:40.954Z,7.60
2017-06-23T13:28:08.966Z,7.60
2017-06-23T13:30:36.977Z,8.00
2017-06-23T13:33:04.998Z,7.37
2017-06-23T13:35:33.011Z,7.70
2017-06-23T13:38:01.022Z,7.83
2017-06-23T13:40:29.046Z,8.00
2017-06-23T13:42:57.823Z,8.60
2017-06-23T13:45:25.834Z,8.83
2017-06-23T13:47:53.878Z,8.67
2017-06-23T13:50:22.654Z,7.80
2017-06-23T13:52:51.430Z,9.17
2017-06-23T13:55:19.450Z,7.80
2017-06-23T13:57:47.463Z,8.30
2017-06-23T14:00:15.472Z,7.60
2017-06-23T14:02:43.503Z,7.80
2017-06-23T14:05:11.514Z,7.30
2017-06-23T14:07:39.534Z,8.40
2017-06-23T14:10:07.557Z,8.03
2017-06-23T14:12:35.570Z,7.77
2017-06-23T14:15:03.579Z,7.00
2017-06-23T14:17:31.601Z,7.33
2017-06-23T14:19:59.606Z,8.20
2017-06-23T14:22:28.386Z,7.37
2017-06-23T14:24:56.398Z,7.13
2017-06-23T14:27:24.410Z,8.23
2017-06-23T14:29:52.414Z,8.10
2017-06-23T14:32:20.434Z,8.90
2017-06-23T14:34:48.462Z,8.17
2017-06-23T14:37:16.477Z,7.67
2017-06-23T14:39:44.526Z,6.80
2017-06-23T14:42:12.538Z,8.17
2017-06-23T14:44:40.549Z,7.00
2017-06-23T14:47:08.570Z,7.20
2017-06-23T14:49:36.577Z,7.07
2017-06-23T14:52:04.586Z,6.93
2017-06-23T14:54:32.637Z,6.23
2017-06-23T14:57:00.649Z,7.03
2017-06-23T14:59:28.665Z,7.10
2017-06-23T15:01:56.705Z,6.63
2017-06-23T15:04:24.722Z,7.37
2017-06-23T15:06:52.733Z,7.03
2017-06-23T15:09:20.753Z,6.40
2017-06-23T15:11:48.762Z,7.17
2017-06-23T15:14:17.473Z,7.03
2017-06-23T15:16:45.489Z,6.63
2017-06-23T15:19:13.501Z,6.70
2017-06-23T15:21:41.509Z,7.07
2017-06-23T15:24:09.545Z,7.03
2017-06-23T15:26:37.561Z,6.63
2017-06-23T15:29:05.573Z,6.80
2017-06-23T15:31:33.585Z,6.80
2017-06-23T15:34:01.605Z,7.30
2017-06-23T15:36:29.617Z,6.67
2017-06-23T15:38:57.633Z,6.40
2017-06-23T15:41:25.649Z,7.50
2017-06-23T15:43:54.425Z,5.77
2017-06-23T15:46:22.460Z,6.50
2017-06-23T15:48:50.477Z,6.60
2017-06-23T15:51:18.489Z,5.27
2017-06-23T15:53:46.645Z,5.80
2017-06-23T15:56:14.653Z,5.13
2017-06-23T15:58:42.677Z,6.43
2017-06-23T16:01:10.697Z,5.50
2017-06-23T16:03:38.713Z,5.70
2017-06-23T16:06:06.733Z,7.00
2017-06-23T16:08:34.768Z,6.10
2017-06-23T16:11:02.773Z,5.90
2017-06-23T16:13:30.776Z,6.40
2017-06-23T16:15:59.561Z,6.13
2017-06-23T16:18:27.569Z,6.77
2017-06-23T16:20:55.572Z,5.97
2017-06-23T16:23:23.593Z,6.50
2017-06-23T16:25:51.608Z,6.40
2017-06-23T16:28:19.622Z,5.93
2017-06-23T16:30:47.633Z,6.63
2017-06-23T16:33:15.640Z,5.83
2017-06-23T16:35:43.656Z,5.13
2017-06-23T16:38:11.676Z,6.20
2017-06-23T16:40:39.684Z,5.10
2017-06-23T16:43:07.693Z,5.13
2017-06-23T16:45:35.728Z,7.57
2017-06-23T16:48:03.737Z,6.70
2017-06-23T16:50:31.756Z,6.50
2017-06-23T16:52:59.812Z,6.67
2017-06-23T16:55:27.824Z,5.73
2017-06-23T16:57:55.832Z,6.10
2017-06-23T17:00:23.852Z,6.03
2017-06-23T17:02:51.860Z,5.80
2017-06-23T17:05:19.872Z,5.80
2017-06-23T17:07:47.928Z,6.47
2017-06-23T17:10:16.706Z,5.77
2017-06-23T17:12:44.708Z,5.50
2017-06-23T17:15:12.732Z,5.97
2017-06-23T17:17:40.740Z,5.60
2017-06-23T17:20:08.760Z,6.47
2017-06-23T17:22:36.780Z,7.47
2017-06-23T17:25:04.800Z,6.27
2017-06-23T17:27:32.808Z,6.53
2017-06-23T17:30:00.844Z,6.07
2017-06-23T17:32:28.860Z,6.50
2017-06-23T17:34:56.880Z,7.00
2017-06-23T17:37:24.916Z,6.10
2017-06-23T17:39:52.927Z,6.57
2017-06-23T17:42:20.939Z,5.93
2017-06-23T17:44:48.966Z,5.43
2017-06-23T17:47:16.976Z,7.10
2017-06-23T17:49:44.991Z,6.03
2017-06-23T17:52:13.023Z,5.73
2017-06-23T17:54:41.031Z,6.70
2017-06-23T17:57:09.043Z,6.80
2017-06-23T17:59:37.848Z,5.90
2017-06-23T18:02:05.864Z,5.83
2017-06-23T18:04:33.884Z,6.50
2017-06-23T18:07:01.935Z,6.37
2017-06-23T18:09:30.711Z,5.63
2017-06-23T18:11:58.735Z,6.80
2017-06-23T18:14:26.755Z,6.20
2017-06-23T18:16:54.767Z,5.50
2017-06-23T18:19:22.783Z,6.63
2017-06-23T18:21:50.807Z,6.30
2017-06-23T18:24:18.827Z,6.10
2017-06-23T18:26:46.843Z,6.30
2017-06-23T18:29:14.867Z,7.03
2017-06-23T18:31:42.879Z,5.87
2017-06-23T18:34:10.895Z,7.30
2017-06-23T18:36:38.936Z,6.07
2017-06-23T18:39:06.946Z,7.07
2017-06-23T18:41:34.971Z,6.67
2017-06-23T18:44:03.015Z,6.43
2017-06-23T18:46:31.035Z,6.63
2017-06-23T18:48:59.047Z,6.40
2017-06-23T18:51:27.835Z,6.20
2017-06-23T18:53:55.867Z,6.40
2017-06-23T18:56:23.875Z,6.70
2017-06-23T18:58:51.927Z,6.60
2017-06-23T19:01:19.943Z,6.63
2017-06-23T19:03:47.947Z,6.40
2017-06-23T19:06:15.987Z,5.83
2017-06-23T19:08:43.999Z,5.93
2017-06-23T19:11:11.998Z,6.43
2017-06-23T19:13:40.975Z,5.90
2017-06-23T19:16:09.742Z,6.33
2017-06-23T19:18:37.750Z,5.97
2017-06-23T19:21:05.790Z,7.10
2017-06-23T19:23:33.803Z,6.07
2017-06-23T19:26:01.815Z,6.77
2017-06-23T19:28:29.834Z,6.63
2017-06-23T19:30:57.843Z,7.00
2017-06-23T19:33:25.851Z,6.57
2017-06-23T19:35:54.654Z,6.53
2017-06-23T19:38:22.670Z,5.90
2017-06-23T19:40:50.679Z,6.20
2017-06-23T19:43:19.470Z,6.30
2017-06-23T19:45:48.250Z,6.07
2017-06-23T19:48:17.028Z,5.90
2017-06-23T19:51:08.742Z,7.00
2017-06-23T19:53:36.758Z,5.87
2017-06-23T19:56:16.690Z,7.20
2017-06-23T19:58:58.118Z,6.90
2017-06-23T20:01:27.074Z,7.27
2017-06-23T20:03:58.166Z,6.67
2017-06-23T20:06:29.862Z,6.97
2017-06-23T20:09:01.438Z,6.90
2017-06-23T20:11:30.398Z,6.50
2017-06-23T20:17:05.054Z,6.57
2017-06-23T20:19:33.983Z,6.10
2017-06-23T20:22:12.574Z,8.03
2017-06-23T20:24:48.106Z,7.57
2017-06-23T20:27:16.926Z,6.80
2017-06-23T20:29:46.842Z,7.27
2017-06-23T20:32:16.774Z,7.57
2017-06-23T20:37:43.789Z,6.73
2017-06-23T20:40:33.294Z,6.83
2017-06-23T20:43:06.865Z,6.97
2017-06-23T20:45:39.558Z,6.90
2017-06-23T20:48:31.317Z,6.93
2017-06-23T20:59:50.210Z,7.37
2017-06-23T21:02:19.114Z,8.10
2017-06-23T21:31:29.518Z,9.63
2017-06-23T21:34:00.757Z,11.07
2017-06-23T21:36:35.365Z,9.90
2017-06-23T21:39:06.045Z,9.67
2017-06-23T21:41:52.837Z,9.87
2017-06-23T21:44:21.777Z,9.77
2017-06-23T21:46:49.805Z,10.10
2017-06-23T21:49:23.293Z,9.73
2017-06-23T21:51:52.226Z,9.83
2017-06-23T21:54:24.713Z,9.30
2017-06-23T21:56:53.624Z,9.17
2017-06-23T21:59:21.641Z,9.13
2017-06-23T22:01:53.437Z,10.50
2017-06-23T22:04:21.461Z,10.13
2017-06-23T22:06:59.121Z,10.00
2017-06-23T22:09:29.037Z,9.27
2017-06-23T22:11:59.721Z,9.27
2017-06-23T22:14:28.637Z,8.47
2017-06-23T22:16:58.544Z,8.77
2017-06-23T22:19:33.756Z,8.20
2017-06-23T22:22:01.773Z,8.10
2017-06-23T22:24:36.361Z,9.43
2017-06-23T22:27:09.400Z,9.57
2017-06-23T22:29:41.009Z,10.13
2017-06-23T22:32:14.772Z,9.30
2017-06-23T22:34:46.500Z,9.93
2017-06-23T22:37:16.181Z,9.00
2017-06-23T22:39:44.201Z,9.57
2017-06-23T22:42:14.841Z,8.87
2017-06-23T22:44:44.764Z,9.63
2017-06-23T22:47:12.781Z,10.13
2017-06-23T22:49:44.121Z,8.70
2017-06-23T22:52:13.052Z,9.47
2017-06-23T22:54:45.508Z,9.53
2017-06-23T22:57:17.140Z,9.27
2017-06-23T22:59:46.080Z,8.77
2017-06-23T23:02:14.100Z,9.43
2017-06-23T23:04:42.113Z,9.83
2017-06-23T23:07:16.372Z,9.97
2017-06-23T23:09:44.380Z,9.33
2017-06-23T23:12:14.062Z,9.13
2017-06-23T23:14:42.088Z,8.30
2017-06-23T23:17:10.104Z,7.70
2017-06-23T23:19:38.124Z,8.20
2017-06-23T23:22:08.035Z,8.00
2017-06-23T23:24:39.692Z,8.50
2017-06-23T23:27:07.753Z,7.77
2017-06-23T23:29:36.703Z,9.00
2017-06-23T23:32:08.180Z,8.73
2017-06-23T23:34:36.960Z,8.43
2017-06-23T23:37:09.456Z,8.13
2017-06-23T23:39:37.467Z,7.30
2017-06-23T23:42:06.380Z,8.47
2017-06-23T23:44:35.355Z,8.20
2017-06-23T23:47:07.275Z,7.40
2017-06-23T23:49:39.096Z,6.80
2017-06-23T23:52:12.731Z,6.67
2017-06-23T23:54:48.204Z,7.23
2017-06-23T23:57:16.223Z,7.47
2017-06-23T23:59:45.904Z,7.60
